createdAt,value
2023-06-28T00:01:29.350Z,100889.12
2023-06-28T00:03:58.011Z,100887.14
2023-06-28T00:06:26.230Z,100895.45
2023-06-28T00:08:54.232Z,100891.48
2023-06-28T00:11:22.348Z,100893.19
2023-06-28T00:13:50.579Z,100889.41
2023-06-28T00:16:18.887Z,100889.31
2023-06-28T00:18:47.008Z,100887.55
2023-06-28T00:21:15.048Z,100881.30
2023-06-28T00:23:44.058Z,100881.77
2023-06-28T00:26:12.303Z,100882.23
2023-06-28T00:28:41.508Z,100883.61
2023-06-28T00:31:11.126Z,100882.73
2023-06-28T00:33:39.496Z,100876.64
2023-06-28T00:36:07.561Z,100879.54
2023-06-28T00:38:38.604Z,100876.34
2023-06-28T00:41:06.824Z,100872.08
2023-06-28T00:43:35.144Z,100873.34
2023-06-28T00:46:03.354Z,100872.03
2023-06-28T00:48:31.788Z,100868.98
2023-06-28T00:51:00.685Z,100866.65
2023-06-28T00:53:29.020Z,100867.70
2023-06-28T00:55:58.951Z,100861.77
2023-06-28T00:58:27.379Z,100856.01
2023-06-28T01:00:56.292Z,100853.52
2023-06-28T01:03:25.068Z,100855.16
2023-06-28T01:05:54.545Z,100855.41
2023-06-28T01:08:26.013Z,100858.80
2023-06-28T01:10:54.896Z,100862.81
2023-06-28T01:13:23.912Z,100864.20
2023-06-28T01:15:52.146Z,100863.01
2023-06-28T01:18:22.712Z,100863.19
2023-06-28T01:20:55.873Z,100864.45
2023-06-28T01:23:26.758Z,100862.70
2023-06-28T01:25:56.372Z,100863.71
2023-06-28T01:28:24.575Z,100862.52
2023-06-28T01:30:54.231Z,100863.97
2023-06-28T01:33:22.640Z,100866.45
2023-06-28T01:35:51.044Z,100862.94
2023-06-28T01:38:20.467Z,100862.44
2023-06-28T01:40:52.711Z,100862.14
2023-06-28T01:43:22.429Z,100861.94
2023-06-28T01:45:51.445Z,100862.65
2023-06-28T01:48:19.974Z,100866.73
2023-06-28T01:50:48.195Z,100870.45
2023-06-28T01:53:19.091Z,100866.39
2023-06-28T01:55:47.238Z,100864.87
2023-06-28T01:58:15.358Z,100871.66
2023-06-28T02:00:43.855Z,100871.30
2023-06-28T02:03:12.294Z,100872.32
2023-06-28T02:05:41.702Z,100869.87
2023-06-28T02:08:09.860Z,100869.16
2023-06-28T02:10:38.179Z,100861.64
2023-06-28T02:13:08.523Z,100861.87
2023-06-28T02:15:37.136Z,100865.47
2023-06-28T02:18:06.447Z,100865.73
2023-06-28T02:20:34.868Z,100867.34
2023-06-28T02:23:04.892Z,100880.84
2023-06-28T02:25:32.916Z,100885.40
2023-06-28T02:28:01.286Z,100871.91
2023-06-28T02:30:29.660Z,100862.77
2023-06-28T02:32:58.135Z,100861.98
2023-06-28T02:35:26.298Z,100865.67
2023-06-28T02:37:54.921Z,100869.03
2023-06-28T02:40:23.138Z,100864.09
2023-06-28T02:42:51.351Z,100859.09
2023-06-28T02:45:20.582Z,100857.25
2023-06-28T02:47:49.165Z,100855.78
2023-06-28T02:50:17.428Z,100856.15
2023-06-28T02:53:05.822Z,100856.13
2023-06-28T02:55:33.952Z,100861.89
2023-06-28T02:58:05.069Z,100868.98
2023-06-28T03:00:33.657Z,100866.83
2023-06-28T03:03:05.408Z,100875.84
2023-06-28T03:05:34.149Z,100881.27
2023-06-28T03:08:02.273Z,100885.02
2023-06-28T03:10:30.590Z,100887.35
2023-06-28T03:12:59.609Z,100899.13
2023-06-28T03:15:28.025Z,100897.61
2023-06-28T03:17:56.421Z,100910.30
2023-06-28T03:20:24.774Z,100921.58
2023-06-28T03:22:52.888Z,100918.19
2023-06-28T03:25:21.160Z,100927.48
2023-06-28T03:27:50.734Z,100932.04
2023-06-28T03:30:19.461Z,100926.81
2023-06-28T03:32:48.042Z,100934.30
2023-06-28T03:35:16.504Z,100936.38
2023-06-28T03:37:52.018Z,100943.59
2023-06-28T03:40:21.303Z,100936.99
2023-06-28T03:42:50.393Z,100932.17
2023-06-28T03:45:19.315Z,100930.28
2023-06-28T03:47:49.281Z,100928.88
2023-06-28T03:50:17.565Z,100925.83
2023-06-28T03:52:45.579Z,100926.63
2023-06-28T03:55:14.203Z,100927.56
2023-06-28T03:57:42.337Z,100929.64
2023-06-28T04:00:11.933Z,100932.36
2023-06-28T04:02:43.172Z,100935.55
2023-06-28T04:05:11.906Z,100946.20
2023-06-28T04:07:40.503Z,100949.13
2023-06-28T04:10:09.425Z,100944.86
2023-06-28T04:12:37.578Z,100941.17
2023-06-28T04:15:07.571Z,100940.56
2023-06-28T04:17:35.743Z,100941.45
2023-06-28T04:20:07.443Z,100938.30
2023-06-28T04:22:36.266Z,100937.72
2023-06-28T04:25:04.828Z,100938.17
2023-06-28T04:27:33.046Z,100940.27
2023-06-28T04:30:01.445Z,100931.56
2023-06-28T04:32:31.025Z,100930.69
2023-06-28T04:35:00.695Z,100939.85
2023-06-28T04:37:32.967Z,100945.98
2023-06-28T04:40:05.361Z,100949.75
2023-06-28T04:42:33.669Z,100950.01
2023-06-28T04:45:01.697Z,100952.30
2023-06-28T04:47:31.257Z,100958.73
2023-06-28T04:50:00.390Z,100956.81
2023-06-28T04:52:28.658Z,100960.02
2023-06-28T04:54:59.407Z,100963.46
2023-06-28T04:57:28.820Z,100961.75
2023-06-28T04:59:58.713Z,100961.80
2023-06-28T05:02:27.152Z,100959.23
2023-06-28T05:04:56.005Z,100963.88
2023-06-28T05:07:24.134Z,100962.60
2023-06-28T05:09:52.225Z,100965.73
2023-06-28T05:12:20.445Z,100966.77
2023-06-28T05:14:48.669Z,100968.52
2023-06-28T05:17:16.884Z,100969.84
2023-06-28T05:19:44.910Z,100974.77
2023-06-28T05:22:13.026Z,100972.77
2023-06-28T05:24:41.050Z,100972.27
2023-06-28T05:27:09.163Z,100975.69
2023-06-28T05:29:37.190Z,100979.30
2023-06-28T05:32:05.917Z,100981.94
2023-06-28T05:34:35.438Z,100983.20
2023-06-28T05:37:04.172Z,100983.33
2023-06-28T05:39:32.384Z,100985.86
2023-06-28T05:42:00.593Z,100985.50
2023-06-28T05:44:28.920Z,100986.75
2023-06-28T05:46:57.259Z,100989.40
2023-06-28T05:49:25.660Z,100992.46
2023-06-28T05:51:53.781Z,100991.84
2023-06-28T05:54:21.923Z,100994.34
2023-06-28T05:56:50.116Z,100992.90
2023-06-28T05:59:18.238Z,100991.30
2023-06-28T06:01:46.318Z,100988.88
2023-06-28T06:04:14.743Z,100987.30
2023-06-28T06:06:42.897Z,100988.83
2023-06-28T06:09:10.915Z,100987.09
2023-06-28T06:11:39.136Z,100990.33
2023-06-28T06:14:07.255Z,100989.39
2023-06-28T06:16:35.278Z,100986.65
2023-06-28T06:19:03.604Z,100991.45
2023-06-28T06:21:31.819Z,100995.59
2023-06-28T06:24:01.394Z,101000.95
2023-06-28T06:26:29.668Z,101003.25
2023-06-28T06:28:57.895Z,101003.46
2023-06-28T06:31:26.111Z,101001.20
2023-06-28T06:33:54.679Z,101002.87
2023-06-28T06:36:22.844Z,101004.77
2023-06-28T06:38:50.970Z,101001.36
2023-06-28T06:41:19.288Z,101003.54
2023-06-28T06:43:47.515Z,101004.92
2023-06-28T06:46:15.639Z,101004.12
2023-06-28T06:48:43.750Z,101007.73
2023-06-28T06:51:11.874Z,101009.84
2023-06-28T06:53:40.092Z,101010.69
2023-06-28T06:56:08.514Z,101015.33
2023-06-28T06:58:38.027Z,101018.13
2023-06-28T07:01:06.517Z,101017.38
2023-06-28T07:03:35.478Z,101017.59
2023-06-28T07:06:03.701Z,101016.13
2023-06-28T07:08:32.023Z,101010.05
2023-06-28T07:11:00.237Z,101007.56
2023-06-28T07:13:28.457Z,101004.11
2023-06-28T07:15:57.519Z,101003.34
2023-06-28T07:18:25.758Z,101000.67
2023-06-28T07:20:54.228Z,101001.63
2023-06-28T07:23:22.741Z,101004.03
2023-06-28T07:25:50.870Z,100999.16
2023-06-28T07:28:19.085Z,101007.73
2023-06-28T07:31:00.191Z,101011.50
2023-06-28T07:33:28.466Z,101014.16
2023-06-28T07:35:56.589Z,101017.00
2023-06-28T07:38:24.814Z,101018.14
2023-06-28T07:40:54.539Z,101012.92
2023-06-28T07:43:22.974Z,101014.04
2023-06-28T07:45:51.830Z,101017.56
2023-06-28T07:48:21.209Z,101019.70
2023-06-28T07:50:49.445Z,101024.61
2023-06-28T07:53:17.655Z,101028.54
2023-06-28T07:55:45.880Z,101028.45
2023-06-28T07:58:14.086Z,101030.66
2023-06-28T08:00:42.407Z,101029.98
2023-06-28T08:03:11.490Z,101025.89
2023-06-28T08:05:40.169Z,101027.01
2023-06-28T08:08:08.811Z,101029.50
2023-06-28T08:10:37.001Z,101030.52
2023-06-28T08:13:05.320Z,101033.04
2023-06-28T08:15:37.766Z,101033.39
2023-06-28T08:18:09.572Z,101032.60
2023-06-28T08:20:42.154Z,101038.27
2023-06-28T08:23:12.047Z,101036.77
2023-06-28T08:25:41.393Z,101039.17
2023-06-28T08:28:09.809Z,101037.65
2023-06-28T08:30:38.128Z,101038.77
2023-06-28T08:33:06.376Z,101044.04
2023-06-28T08:35:34.761Z,101050.05
2023-06-28T08:38:04.733Z,101056.67
2023-06-28T08:40:33.505Z,101055.80
2023-06-28T08:43:03.228Z,101058.28
2023-06-28T08:45:34.910Z,101059.70
2023-06-28T08:48:10.053Z,101057.13
2023-06-28T08:50:53.174Z,101052.36
2023-06-28T08:53:23.039Z,101052.28
2023-06-28T08:55:52.592Z,101043.79
2023-06-28T08:58:21.866Z,101040.04
2023-06-28T09:00:50.094Z,101041.20
2023-06-28T09:03:20.006Z,101043.27
2023-06-28T09:05:48.423Z,101047.05
2023-06-28T09:08:19.030Z,101050.27
2023-06-28T09:10:47.373Z,101054.03
2023-06-28T09:13:21.281Z,101053.15
2023-06-28T09:15:49.955Z,101055.96
2023-06-28T09:18:18.178Z,101056.16
2023-06-28T09:20:56.550Z,101061.27
2023-06-28T09:23:29.460Z,101064.90
2023-06-28T09:25:58.297Z,101061.70
2023-06-28T09:28:35.719Z,101052.71
2023-06-28T09:31:07.755Z,101048.63
2023-06-28T09:33:35.988Z,101043.90
2023-06-28T09:36:04.519Z,101042.48
2023-06-28T09:38:34.962Z,101042.42
2023-06-28T09:41:03.864Z,101040.27
2023-06-28T09:43:34.841Z,101043.23
2023-06-28T09:46:17.082Z,101047.02
2023-06-28T09:48:49.695Z,101044.23
2023-06-28T09:51:19.110Z,101043.66
2023-06-28T09:53:51.746Z,101040.76
2023-06-28T09:56:43.953Z,101045.45
2023-06-28T09:59:19.878Z,101060.55
2023-06-28T10:02:02.386Z,101073.75
2023-06-28T10:04:32.105Z,101077.52
2023-06-28T10:07:02.285Z,101072.34
2023-06-28T10:09:41.091Z,101059.55
2023-06-28T10:12:14.443Z,101056.37
2023-06-28T10:14:46.604Z,101062.14
2023-06-28T10:17:16.179Z,101062.58
2023-06-28T10:19:45.232Z,101067.48
2023-06-28T10:22:15.065Z,101055.77
2023-06-28T10:24:44.473Z,101044.17
2023-06-28T10:27:14.413Z,101036.76
2023-06-28T10:29:44.496Z,101035.20
2023-06-28T10:32:12.868Z,101031.27
2023-06-28T10:34:43.171Z,101027.14
2023-06-28T10:37:11.477Z,101027.15
2023-06-28T10:39:40.292Z,101022.77
2023-06-28T10:42:08.913Z,101016.89
2023-06-28T10:44:51.718Z,101012.80
2023-06-28T10:47:20.143Z,101021.05
2023-06-28T10:50:12.524Z,101023.75
2023-06-28T10:52:46.852Z,101021.73
2023-06-28T10:55:22.128Z,101016.48
2023-06-28T10:58:12.618Z,101013.85
2023-06-28T11:00:48.606Z,101007.01
2023-06-28T11:03:17.286Z,101007.58
2023-06-28T11:05:55.618Z,101005.66
2023-06-28T11:08:38.586Z,101010.05
2023-06-28T11:11:08.959Z,101015.16
2023-06-28T11:13:40.267Z,101024.98
2023-06-28T11:16:27.540Z,101030.70
2023-06-28T11:18:55.810Z,101034.54
2023-06-28T11:21:25.822Z,101028.84
2023-06-28T11:23:56.364Z,101030.23
2023-06-28T11:26:38.479Z,101037.77
2023-06-28T11:29:20.264Z,101041.98
2023-06-28T11:31:58.225Z,101048.71
2023-06-28T11:34:27.309Z,101052.15
2023-06-28T11:36:57.583Z,101051.06
2023-06-28T11:39:26.693Z,101039.60
2023-06-28T11:41:54.832Z,101038.83
2023-06-28T11:44:23.331Z,101042.90
2023-06-28T11:46:51.448Z,101042.11
2023-06-28T11:49:20.772Z,101041.08
2023-06-28T11:51:52.767Z,101045.41
2023-06-28T11:54:22.033Z,101053.95
2023-06-28T11:56:51.076Z,101059.77
2023-06-28T11:59:22.187Z,101067.59
2023-06-28T12:02:05.971Z,101074.58
2023-06-28T12:04:38.428Z,101078.66
2023-06-28T12:07:06.971Z,101083.48
2023-06-28T12:09:36.987Z,101091.92
2023-06-28T12:12:07.945Z,101095.25
2023-06-28T12:14:45.128Z,101096.91
2023-06-28T12:17:13.445Z,101093.84
2023-06-28T12:19:42.096Z,101098.30
2023-06-28T12:22:10.431Z,101096.73
2023-06-28T12:24:39.306Z,101093.71
2023-06-28T12:27:10.036Z,101093.49
2023-06-28T12:29:38.961Z,101090.68
2023-06-28T12:32:13.127Z,101080.14
2023-06-28T12:34:49.858Z,101070.23
2023-06-28T12:37:18.776Z,101070.03
2023-06-28T12:39:47.199Z,101063.14
2023-06-28T12:42:18.122Z,101056.56
2023-06-28T12:44:55.679Z,101048.11
2023-06-28T12:47:30.981Z,101057.11
2023-06-28T12:50:00.273Z,101069.63
2023-06-28T12:52:30.374Z,101082.34
2023-06-28T12:54:59.089Z,101089.05
2023-06-28T12:57:30.436Z,101095.36
2023-06-28T12:59:58.774Z,101094.48
2023-06-28T13:02:27.285Z,101085.89
2023-06-28T13:04:55.740Z,101087.56
2023-06-28T13:07:24.133Z,101084.48
2023-06-28T13:09:52.332Z,101083.67
2023-06-28T13:12:20.568Z,101087.92
2023-06-28T13:14:48.776Z,101089.59
2023-06-28T13:17:17.106Z,101092.63
2023-06-28T13:19:45.118Z,101097.48
2023-06-28T13:22:13.537Z,101106.01
2023-06-28T13:24:41.762Z,101116.04
2023-06-28T13:27:10.279Z,101120.75
2023-06-28T13:29:38.602Z,101126.04
2023-06-28T13:32:07.677Z,101132.20
2023-06-28T13:34:36.250Z,101132.92
2023-06-28T13:37:12.704Z,101127.15
2023-06-28T13:39:51.349Z,101114.05
2023-06-28T13:42:19.369Z,101106.55
2023-06-28T13:44:47.492Z,101094.04
2023-06-28T13:47:15.712Z,101081.66
2023-06-28T13:49:43.832Z,101074.09
2023-06-28T13:52:12.253Z,101077.61
2023-06-28T13:54:40.375Z,101088.94
2023-06-28T13:57:08.391Z,101097.08
2023-06-28T13:59:36.514Z,101097.05
2023-06-28T14:02:05.920Z,101094.61
2023-06-28T14:04:34.160Z,101095.02
2023-06-28T14:07:03.057Z,101090.94
2023-06-28T14:09:31.404Z,101091.30
2023-06-28T14:12:01.090Z,101098.15
2023-06-28T14:14:30.261Z,101104.81
2023-06-28T14:16:58.467Z,101114.20
2023-06-28T14:19:26.589Z,101120.48
2023-06-28T14:21:54.912Z,101119.45
2023-06-28T14:24:23.042Z,101125.44
2023-06-28T14:26:54.268Z,101132.35
2023-06-28T14:29:22.491Z,101132.76
2023-06-28T14:31:50.699Z,101132.88
2023-06-28T14:34:18.931Z,101138.61
2023-06-28T14:36:47.138Z,101150.30
2023-06-28T14:39:15.271Z,101152.75
2023-06-28T14:41:43.493Z,101150.49
2023-06-28T14:44:11.597Z,101153.20
2023-06-28T14:46:40.021Z,101155.64
2023-06-28T14:49:08.149Z,101153.20
2023-06-28T14:51:36.161Z,101151.26
2023-06-28T14:54:04.382Z,101145.45
2023-06-28T14:56:33.106Z,101154.02
2023-06-28T14:59:01.324Z,101156.27
2023-06-28T15:01:29.498Z,101157.21
2023-06-28T15:03:58.289Z,101155.75
2023-06-28T15:06:26.586Z,101149.54
2023-06-28T15:08:55.108Z,101149.46
2023-06-28T15:11:23.346Z,101153.61
2023-06-28T15:13:51.466Z,101157.83
2023-06-28T15:16:19.925Z,101156.86
2023-06-28T15:18:48.991Z,101157.18
2023-06-28T15:21:17.232Z,101154.88
2023-06-28T15:23:45.693Z,101156.27
2023-06-28T15:26:13.834Z,101161.23
2023-06-28T15:28:41.983Z,101167.59
2023-06-28T15:31:10.131Z,101180.64
2023-06-28T15:33:38.636Z,101193.54
2023-06-28T15:36:06.740Z,101196.05
2023-06-28T15:38:34.859Z,101200.02
2023-06-28T15:41:03.078Z,101206.91
2023-06-28T15:43:31.203Z,101209.48
2023-06-28T15:46:00.044Z,101205.45
2023-06-28T15:48:28.241Z,101195.92
2023-06-28T15:50:56.464Z,101197.10
2023-06-28T15:53:24.581Z,101198.54
2023-06-28T15:55:52.802Z,101198.67
2023-06-28T15:58:20.933Z,101195.17
2023-06-28T16:00:50.455Z,101197.69
2023-06-28T16:03:19.248Z,101206.68
2023-06-28T16:05:47.591Z,101207.06
2023-06-28T16:08:15.720Z,101201.84
2023-06-28T16:10:44.152Z,101196.05
2023-06-28T16:13:15.867Z,101196.35
2023-06-28T16:15:43.983Z,101198.69
2023-06-28T16:18:12.312Z,101203.54
2023-06-28T16:20:40.419Z,101200.04
2023-06-28T16:23:08.640Z,101196.58
2023-06-28T16:25:36.867Z,101193.79
2023-06-28T16:28:05.331Z,101188.54
2023-06-28T16:30:33.517Z,101187.19
2023-06-28T16:33:05.074Z,101179.15
2023-06-28T16:35:33.362Z,101179.60
2023-06-28T16:38:02.186Z,101184.91
2023-06-28T16:40:30.609Z,101202.04
2023-06-28T16:42:58.770Z,101215.49
2023-06-28T16:45:26.943Z,101232.39
2023-06-28T16:47:55.116Z,101245.20
2023-06-28T16:50:23.544Z,101245.55
2023-06-28T16:52:52.006Z,101242.59
2023-06-28T16:55:20.959Z,101240.08
2023-06-28T16:57:49.263Z,101234.80
2023-06-28T17:00:18.344Z,101227.17
2023-06-28T17:02:47.899Z,101219.66
2023-06-28T17:05:16.648Z,101219.27
2023-06-28T17:07:45.041Z,101225.29
2023-06-28T17:10:16.172Z,101220.61
2023-06-28T17:12:44.306Z,101207.77
2023-06-28T17:15:13.544Z,101200.78
2023-06-28T17:17:41.871Z,101206.71
2023-06-28T17:20:10.087Z,101207.41
2023-06-28T17:22:39.792Z,101206.66
2023-06-28T17:25:08.610Z,101212.80
2023-06-28T17:27:36.826Z,101216.76
2023-06-28T17:30:05.656Z,101212.52
2023-06-28T17:32:34.039Z,101201.80
2023-06-28T17:35:02.085Z,101195.98
2023-06-28T17:37:31.229Z,101202.24
2023-06-28T17:39:59.430Z,101206.90
2023-06-28T17:42:27.654Z,101208.61
2023-06-28T17:44:55.872Z,101216.30
2023-06-28T17:47:24.124Z,101215.39
2023-06-28T17:49:52.317Z,101213.98
2023-06-28T17:52:20.839Z,101215.41
2023-06-28T17:54:49.252Z,101216.44
2023-06-28T17:57:17.582Z,101220.86
2023-06-28T17:59:47.100Z,101224.75
2023-06-28T18:02:16.924Z,101229.77
2023-06-28T18:04:46.857Z,101229.94
2023-06-28T18:07:15.029Z,101229.27
2023-06-28T18:09:43.294Z,101232.91
2023-06-28T18:12:14.097Z,101234.30
2023-06-28T18:14:43.822Z,101233.67
2023-06-28T18:17:12.571Z,101235.92
2023-06-28T18:19:43.102Z,101249.34
2023-06-28T18:22:11.232Z,101259.29
2023-06-28T18:24:39.544Z,101266.13
2023-06-28T18:27:07.864Z,101281.79
2023-06-28T18:29:35.911Z,101291.74
2023-06-28T18:32:04.716Z,101295.61
2023-06-28T18:34:33.026Z,101296.69
2023-06-28T18:37:01.253Z,101300.52
2023-06-28T18:39:29.469Z,101307.14
2023-06-28T18:41:57.684Z,101312.83
2023-06-28T18:44:25.823Z,101316.94
2023-06-28T18:46:54.134Z,101313.73
2023-06-28T18:49:22.353Z,101312.49
2023-06-28T18:51:50.476Z,101318.06
2023-06-28T18:54:18.720Z,101322.86
2023-06-28T18:56:46.905Z,101320.56
2023-06-28T18:59:15.336Z,101333.91
2023-06-28T19:01:43.595Z,101341.66
2023-06-28T19:04:13.897Z,101346.28
2023-06-28T19:06:42.609Z,101353.41
2023-06-28T19:09:10.842Z,101357.42
2023-06-28T19:11:39.045Z,101357.33
2023-06-28T19:14:07.161Z,101350.67
2023-06-28T19:16:35.489Z,101345.55
2023-06-28T19:19:04.210Z,101343.15
2023-06-28T19:21:32.327Z,101342.86
2023-06-28T19:24:00.546Z,101340.59
2023-06-28T19:26:28.779Z,101343.67
2023-06-28T19:28:57.003Z,101341.82
2023-06-28T19:31:26.550Z,101336.66
2023-06-28T19:33:54.833Z,101337.90
2023-06-28T19:36:24.436Z,101342.59
2023-06-28T19:38:52.575Z,101342.67
2023-06-28T19:41:21.802Z,101340.68
2023-06-28T19:43:50.041Z,101339.14
2023-06-28T19:46:18.442Z,101343.27
2023-06-28T19:48:46.668Z,101343.68
2023-06-28T19:51:15.587Z,101340.19
2023-06-28T19:53:43.709Z,101347.09
2023-06-28T19:56:12.530Z,101352.33
2023-06-28T19:58:40.944Z,101353.12
2023-06-28T20:01:09.540Z,101356.90
2023-06-28T20:03:38.302Z,101353.01
2023-06-28T20:06:06.722Z,101339.86
2023-06-28T20:08:34.923Z,101325.50
2023-06-28T20:11:03.690Z,101316.82
2023-06-28T20:13:32.567Z,101315.38
2023-06-28T20:16:00.994Z,101313.91
2023-06-28T20:18:29.328Z,101324.14
2023-06-28T20:20:58.053Z,101332.50
2023-06-28T20:23:26.883Z,101321.94
2023-06-28T20:25:55.085Z,101303.39
2023-06-28T20:28:23.228Z,101299.73
2023-06-28T20:30:51.723Z,101303.21
2023-06-28T20:33:19.945Z,101312.17
2023-06-28T20:35:48.451Z,101322.64
2023-06-28T20:38:17.488Z,101325.12
2023-06-28T20:40:46.717Z,101317.22
2023-06-28T20:43:19.157Z,101314.67
2023-06-28T20:45:48.170Z,101316.80
2023-06-28T20:48:18.123Z,101311.00
2023-06-28T20:50:47.533Z,101314.42
2023-06-28T20:53:15.749Z,101312.60
2023-06-28T20:55:44.095Z,101315.59
2023-06-28T20:58:12.302Z,101318.55
2023-06-28T21:00:40.412Z,101317.52
2023-06-28T21:03:08.567Z,101313.67
2023-06-28T21:05:38.560Z,101311.50
2023-06-28T21:08:06.779Z,101312.66
2023-06-28T21:10:38.523Z,101302.96
2023-06-28T21:13:08.262Z,101298.88
2023-06-28T21:15:36.474Z,101290.31
2023-06-28T21:18:08.474Z,101279.95
2023-06-28T21:20:36.809Z,101280.98
2023-06-28T21:23:04.985Z,101282.33
2023-06-28T21:25:34.564Z,101282.03
2023-06-28T21:28:02.675Z,101276.90
2023-06-28T21:30:30.800Z,101279.10
2023-06-28T21:32:59.059Z,101285.03
2023-06-28T21:35:29.963Z,101282.84
2023-06-28T21:37:58.159Z,101274.91
2023-06-28T21:40:26.378Z,101277.98
2023-06-28T21:42:54.608Z,101283.27
2023-06-28T21:45:22.726Z,101281.80
2023-06-28T21:47:51.000Z,101284.17
2023-06-28T21:50:19.290Z,101284.99
2023-06-28T21:52:47.490Z,101277.14
2023-06-28T21:55:15.804Z,101274.66
2023-06-28T21:57:43.825Z,101275.69
2023-06-28T22:00:25.309Z,101281.92
2023-06-28T22:02:53.944Z,101283.18
2023-06-28T22:05:24.347Z,101278.60
2023-06-28T22:07:53.851Z,101279.47
2023-06-28T22:10:22.088Z,101287.29
2023-06-28T22:12:50.813Z,101288.88
2023-06-28T22:15:19.031Z,101286.96
2023-06-28T22:17:47.286Z,101294.57
2023-06-28T22:20:16.774Z,101298.32
2023-06-28T22:22:45.031Z,101298.98
2023-06-28T22:25:13.123Z,101304.77
2023-06-28T22:27:41.241Z,101307.59
2023-06-28T22:30:10.900Z,101303.04
2023-06-28T22:32:44.056Z,101298.88
2023-06-28T22:35:12.335Z,101298.67
2023-06-28T22:37:40.445Z,101299.16
2023-06-28T22:40:09.668Z,101302.77
2023-06-28T22:42:38.188Z,101301.59
2023-06-28T22:45:06.967Z,101299.45
2023-06-28T22:47:38.325Z,101295.33
2023-06-28T22:50:10.078Z,101289.98
2023-06-28T22:52:42.829Z,101285.19
2023-06-28T22:55:11.640Z,101291.73
2023-06-28T22:57:39.952Z,101290.98
2023-06-28T23:00:11.489Z,101295.48
2023-06-28T23:02:39.835Z,101303.49
2023-06-28T23:05:08.743Z,101307.20
2023-06-28T23:07:37.161Z,101306.23
2023-06-28T23:10:06.270Z,101298.28
2023-06-28T23:12:38.582Z,101290.86
2023-06-28T23:15:11.129Z,101286.23
2023-06-28T23:17:39.389Z,101296.71
2023-06-28T23:20:09.388Z,101300.91
2023-06-28T23:22:38.208Z,101309.95
2023-06-28T23:25:06.935Z,101307.89
2023-06-28T23:27:36.553Z,101309.35
2023-06-28T23:30:05.181Z,101307.67
2023-06-28T23:32:33.455Z,101299.88
2023-06-28T23:35:01.554Z,101294.86
2023-06-28T23:37:29.748Z,101295.15
2023-06-28T23:39:57.985Z,101294.10
2023-06-28T23:42:26.183Z,101298.77
2023-06-28T23:44:54.303Z,101308.01
2023-06-28T23:47:22.478Z,101316.34
2023-06-28T23:49:51.845Z,101328.64
2023-06-28T23:52:20.170Z,101332.15
2023-06-28T23:54:50.291Z,101329.77
2023-06-28T23:57:18.525Z,101336.19
2023-06-28T23:59:46.750Z,101334.23
